METAR Data
IDs: Format: Raw Decoded Include TAF

Data at: 0618 UTC 03 Aug 2021

KFUL 030553Z AUTO 00000KT 10SM CLR 23/13 A2996 RMK AO2 SLP142 T02330133 10339 20233 50006
KFUL 030453Z AUTO 22003KT 10SM CLR 24/12 A2996 RMK AO2 SLP143 T02440122
KFUL 030353Z 00000KT 10SM CLR 26/12 A2995 RMK AO2 SLP139 T02560117
KFUL 030253Z VRB03KT 10SM CLR 27/12 A2994 RMK AO2 SLP137 T02670117 53007
KFUL 030153Z VRB04KT 10SM CLR 29/09 A2993 RMK AO2 SLP133 T02890094
KFUL 030053Z 25008KT 10SM CLR 32/07 A2992 RMK AO2 SLP130 T03170072
KFUL 022353Z VRB06KT 10SM CLR 34/08 A2992 RMK AO2 SLP129 T03390083 10361 20300 57013
KFUL 022253Z 27010KT 10SM CLR 34/08 A2993 RMK AO2 SLP133 T03440078
KFUL 022153Z 19009KT 10SM CLR 34/15 A2994 RMK AO2 SLP139 T03390150
KFUL 022053Z 20006KT 10SM CLR 34/16 A2995 RMK AO2 SLP142 T03440156 56020
KFUL 021953Z 21007KT 10SM CLR 34/14 A2997 RMK AO2 SLP147 T03390144
KFUL 021853Z VRB03KT 10SM CLR 32/12 A2999 RMK AO2 SLP155 T03220122
KFUL 021753Z 00000KT 10SM CLR 30/14 A3001 RMK AO2 SLP162 T03000144 10300 20183 58013
KFUL 021653Z 00000KT 10SM CLR 27/15 A3003 RMK AO2 SLP167 T02670150
KFUL 021553Z VRB03KT 10SM CLR 24/15 A3004 RMK AO2 SLP172 T02390150
KFUL 021453Z 00000KT 10SM CLR 22/15 A3005 RMK AO2 SLP175 T02170150 53015
KFUL 021353Z 00000KT 10SM CLR 20/14 A3004 RMK AO2 SLP171 T02000139
KFUL 021253Z AUTO 00000KT 10SM CLR 19/14 A3002 RMK AO2 SLP164 T01890139
KFUL 021153Z AUTO 00000KT 10SM CLR 19/14 A3001 RMK AO2 SLP160 T01940144 10222 20189 53001
KFUL 021053Z AUTO 00000KT 10SM CLR 19/14 A3000 RMK AO2 SLP158 T01940139
KFUL 020953Z AUTO 00000KT 10SM CLR 19/14 A3000 RMK AO2 SLP157 T01940144
KFUL 020853Z AUTO 00000KT 10SM CLR 20/14 A3000 RMK AO2 SLP159 T02000144 56004
KFUL 020753Z AUTO 00000KT 10SM CLR 22/14 A3001 RMK AO2 SLP160 T02170139 403390183
KFUL 020653Z AUTO 00000KT 10SM CLR 22/13 A3001 RMK AO2 SLP162 T02170133
KFUL 020553Z AUTO 00000KT 10SM CLR 22/13 A3002 RMK AO2 SLP163 T02220133 10317 20222 51010
KFUL 020453Z AUTO 00000KT 10SM CLR 23/13 A3001 RMK AO2 SLP163 T02280133
KFUL 020353Z 23004KT 10SM CLR 24/13 A2999 RMK AO2 SLP156 T02390128
KFUL 020253Z 23007KT 10SM CLR 25/12 A2999 RMK AO2 SLP153 T02500117 53003
KFUL 020153Z 25008KT 10SM CLR 27/12 A2998 RMK AO2 SLP150 T02670122
KFUL 020053Z 29009KT 10SM FEW070 29/12 A2997 RMK AO2 SLP147 T02940122
KFUL 012353Z 26008KT 10SM FEW070 32/12 A2998 RMK AO2 SLP150 T03170122 10339 20278 56006
KFUL 012253Z VRB05KT 10SM FEW070 33/13 A2998 RMK AO2 SLP152 T03330133
KFUL 012153Z 20008KT 10SM FEW070 32/15 A2999 RMK AO2 SLP153 T03170150
KFUL 012053Z 18007KT 10SM FEW070 32/16 A3000 RMK AO2 SLP156 T03170161 56015
KFUL 011953Z 20007KT 10SM CLR 32/17 A3001 RMK AO2 SLP161 T03170167
KFUL 011853Z VRB03KT 10SM FEW070 31/14 A3002 RMK AO2 SLP165 T03060144
KFUL 011847Z VRB03KT 10SM FEW070 31/14 A3002 RMK DB